»·PEaware :: N380SP KSMX-KBFL

N380SP :: KSMX-KBFL

FLIGHT INFORMATION

Flight Status: Arrived
Operator: Privately registered:
United States
More flights under this callsign
Pilot: Kevin S. (26378)
Aircraft: CESSNA 172 SKYHAWK
(C172)
More flights by this aircraft type
Origin: KSMX Santa Maria Pub/Capt Hancock
United States
Destination: KBFL Meadows
United States
More flights between these airports :: More routes between these airports
Route: +
File this flight plan on PilotEdge
Remarks:
Altitude:
(Current/Filed)
7,500ft
Speed:
(Current/Filed)
100kts
Departed: 01-Oct-19 07:54 PM
Arrived: 01-Oct-19 08:46 PM
Distance/Time
Traveled:
76nm/0:52
Distance/Time
To Go:
Arrived

Flight Plot

Page will automatically refresh every two minutes.


Map Options




Map Legend


Flown Route
Filed Route
Departure Airport
Arrival Airport
Navaid (VOR, NDB)
Fix

Horizontal Profiles

Position Reports

Time Latitude Longitude Heading Altitude Ground
Speed
01-Oct-19 19:43 34.895642 -120.444789 314 265ft 0kts
01-Oct-19 19:44 34.895642 -120.444789 314 265ft 0kts
01-Oct-19 19:45 34.895642 -120.444789 314 265ft 0kts
01-Oct-19 19:46 34.895642 -120.444789 314 265ft 0kts
01-Oct-19 19:47 34.895642 -120.444789 314 265ft 0kts
01-Oct-19 19:48 34.894303 -120.445241 171 265ft 14kts
01-Oct-19 19:49 34.893335 -120.445196 198 265ft 0kts
01-Oct-19 19:50 34.893335 -120.445196 198 265ft 0kts
01-Oct-19 19:51 34.893335 -120.445196 199 265ft 0kts
01-Oct-19 19:52 34.893297 -120.445214 201 265ft 3kts
01-Oct-19 19:53 34.901069 -120.454885 313 504ft 74kts
01-Oct-19 19:54 34.917331 -120.465187 42 1270ft 88kts
01-Oct-19 19:55 34.931996 -120.443770 39 2134ft 80kts
01-Oct-19 19:56 34.948499 -120.425464 50 2875ft 88kts
01-Oct-19 19:57 34.960773 -120.400723 51 3704ft 84kts
01-Oct-19 19:58 34.972357 -120.375553 31 4457ft 83kts
01-Oct-19 19:59 34.991930 -120.374174 340 5208ft 75kts
01-Oct-19 20:00 35.012046 -120.371872 61 5846ft 101kts
01-Oct-19 20:01 35.015515 -120.340374 60 6599ft 94kts
01-Oct-19 20:02 35.025885 -120.302813 74 6487ft 114kts
01-Oct-19 20:03 35.025717 -120.267949 90 6458ft 100kts
01-Oct-19 20:04 35.022511 -120.239127 91 6359ft 101kts
01-Oct-19 20:05 35.016776 -120.206004 107 6373ft 101kts
01-Oct-19 20:06 35.008745 -120.176827 60 6692ft 91kts
01-Oct-19 20:07 35.018987 -120.148397 53 7355ft 92kts
01-Oct-19 20:08 35.032532 -120.122009 52 7595ft 95kts
01-Oct-19 20:09 35.041268 -120.091038 75 7675ft 101kts
01-Oct-19 20:10 35.051014 -120.060342 62 7686ft 97kts
01-Oct-19 20:11 35.056966 -120.027540 73 7686ft 100kts
01-Oct-19 20:12 35.057370 -119.992974 98 7616ft 106kts
01-Oct-19 20:13 35.063666 -119.960965 55 7533ft 96kts
01-Oct-19 20:14 35.074726 -119.931293 66 7452ft 99kts
01-Oct-19 20:15 35.091154 -119.908410 44 7377ft 91kts
01-Oct-19 20:16 35.104517 -119.881139 58 7372ft 95kts
01-Oct-19 20:17 35.111860 -119.849461 73 7511ft 99kts
01-Oct-19 20:18 35.113574 -119.815074 85 7578ft 103kts
01-Oct-19 20:19 35.123349 -119.787141 39 7521ft 95kts
01-Oct-19 20:20 35.137761 -119.760979 68 7588ft 100kts
01-Oct-19 20:21 35.142993 -119.727602 65 7638ft 99kts
01-Oct-19 20:22 35.154562 -119.695049 58 7574ft 116kts
01-Oct-19 20:23 35.170601 -119.662481 47 7654ft 110kts
01-Oct-19 20:24 35.187555 -119.631094 53 7687ft 115kts
01-Oct-19 20:25 35.202555 -119.593811 63 7429ft 125kts
01-Oct-19 20:26 35.218854 -119.558957 40 7395ft 115kts
01-Oct-19 20:27 35.236385 -119.525514 72 7413ft 124kts
01-Oct-19 20:28 35.240300 -119.483455 97 7623ft 133kts
01-Oct-19 20:29 35.231401 -119.440685 99 7643ft 128kts
01-Oct-19 20:30 35.219700 -119.398820 109 7533ft 130kts
01-Oct-19 20:31 35.216196 -119.356213 85 7426ft 127kts
01-Oct-19 20:32 35.213584 -119.313641 83 7352ft 126kts
01-Oct-19 20:33 35.230067 -119.279411 39 7331ft 116kts
01-Oct-19 20:34 35.250865 -119.248846 46 7330ft 118kts
01-Oct-19 20:35 35.271642 -119.218459 41 7544ft 116kts
01-Oct-19 20:36 35.289925 -119.185783 46 6979ft 111kts
01-Oct-19 20:37 35.308626 -119.155165 61 6231ft 115kts
01-Oct-19 20:38 35.322384 -119.120875 29 5480ft 106kts
01-Oct-19 20:39 35.346406 -119.102109 25 4530ft 99kts
01-Oct-19 20:41 35.366359 -119.077352 50 3182ft 102kts
01-Oct-19 20:42 35.373569 -119.045041 44 1682ft 108kts
01-Oct-19 20:43 35.390792 -119.027041 1 1094ft 68kts
01-Oct-19 20:44 35.410748 -119.035323 328 1121ft 79kts
01-Oct-19 20:45 35.424307 -119.048401 315 623ft 63kts
01-Oct-19 20:46 35.434113 -119.060042 305 483ft 25kts
01-Oct-19 20:47 35.432256 -119.058974 136 479ft 35kts

Navigation Log

Ident Type
Flight plan parsing failed, navigation log unavailable